createdAt,value
2019-04-14T00:01:06.432Z,5.58
2019-04-14T00:03:43.318Z,5.97
2019-04-14T00:06:12.038Z,8.48
2019-04-14T00:08:41.588Z,5.97
2019-04-14T00:11:10.437Z,7.30
2019-04-14T00:13:39.314Z,8.13
2019-04-14T00:16:07.980Z,7.53
2019-04-14T00:18:36.666Z,6.33
2019-04-14T00:21:06.491Z,5.72
2019-04-14T00:23:35.375Z,5.92
2019-04-14T00:26:27.587Z,11.00
2019-04-14T00:28:57.768Z,8.75
2019-04-14T00:31:28.566Z,8.78
2019-04-14T00:33:59.002Z,7.15
2019-04-14T00:36:38.069Z,5.10
2019-04-14T00:39:18.300Z,8.08
2019-04-14T00:42:01.421Z,5.83
2019-04-14T00:44:39.106Z,11.80
2019-04-14T00:47:09.443Z,8.30
2019-04-14T00:49:38.159Z,7.92
2019-04-14T00:52:07.941Z,8.30
2019-04-14T00:54:37.068Z,12.63
2019-04-14T00:57:05.795Z,12.35
2019-04-14T00:59:35.457Z,15.23
2019-04-14T01:02:04.234Z,12.20
2019-04-14T01:04:33.768Z,14.85
2019-04-14T01:07:02.563Z,14.55
2019-04-14T01:09:31.183Z,11.90
2019-04-14T01:12:01.671Z,15.40
2019-04-14T01:14:31.923Z,15.18
2019-04-14T01:17:00.973Z,15.53
2019-04-14T01:19:30.862Z,10.72
2019-04-14T01:22:00.942Z,9.85
2019-04-14T01:24:29.756Z,13.83
2019-04-14T01:26:59.461Z,12.73
2019-04-14T01:29:29.660Z,9.00
2019-04-14T01:31:58.667Z,12.73
2019-04-14T01:34:28.158Z,9.28
2019-04-14T01:36:56.933Z,9.45
2019-04-14T01:39:26.517Z,14.90
2019-04-14T01:41:56.445Z,8.90
2019-04-14T01:44:26.431Z,10.82
2019-04-14T01:46:56.500Z,7.45
2019-04-14T01:49:26.804Z,10.20
2019-04-14T01:52:06.395Z,8.95
2019-04-14T01:54:39.402Z,10.03
2019-04-14T01:57:26.364Z,13.20
2019-04-14T01:59:56.692Z,8.80
2019-04-14T02:02:27.130Z,8.88
2019-04-14T02:04:55.805Z,9.28
2019-04-14T02:07:25.526Z,8.28
2019-04-14T02:09:55.355Z,9.10
2019-04-14T02:12:25.432Z,11.90
2019-04-14T02:14:54.512Z,7.25
2019-04-14T02:17:24.222Z,7.67
2019-04-14T02:19:54.526Z,7.10
2019-04-14T02:22:24.546Z,6.12
2019-04-14T02:24:54.808Z,6.37
2019-04-14T02:27:25.239Z,7.65
2019-04-14T02:29:54.267Z,8.40
2019-04-14T02:32:51.486Z,5.25
2019-04-14T02:35:21.464Z,6.67
2019-04-14T02:37:58.564Z,5.22
2019-04-14T02:43:03.918Z,7.85
2019-04-14T02:50:17.202Z,6.45
2019-04-14T02:53:01.204Z,7.95
2019-04-14T02:55:19.082Z,6.62
2019-04-14T02:57:57.276Z,6.90
2019-04-14T03:00:25.779Z,6.17
2019-04-14T03:02:47.483Z,6.17
2019-04-14T03:05:32.101Z,10.63
2019-04-14T03:07:53.634Z,8.85
2019-04-14T03:10:24.597Z,5.20
2019-04-14T03:12:58.634Z,4.85
2019-04-14T03:15:23.998Z,7.37
2019-04-14T03:18:24.004Z,4.80
2019-04-14T03:20:47.552Z,5.58
2019-04-14T03:23:44.201Z,5.62
2019-04-14T03:26:15.505Z,9.45
2019-04-14T03:31:37.571Z,8.78
2019-04-14T03:36:58.827Z,9.15
2019-04-14T03:38:58.872Z,8.83
2019-04-14T03:43:50.033Z,20.15
2019-04-14T03:46:25.451Z,18.92
2019-04-14T03:51:26.242Z,17.23
2019-04-14T03:53:53.526Z,14.70
2019-04-14T03:56:07.153Z,17.85
2019-04-14T03:58:33.586Z,11.33
2019-04-14T04:01:02.443Z,13.48
2019-04-14T04:03:32.414Z,11.33
2019-04-14T04:06:01.331Z,10.25
2019-04-14T04:08:31.189Z,8.68
2019-04-14T04:11:02.021Z,7.92
2019-04-14T04:16:00.534Z,7.60
2019-04-14T04:18:30.895Z,7.75
2019-04-14T04:26:38.551Z,6.03
2019-04-14T04:29:17.979Z,8.38
2019-04-14T04:31:54.727Z,5.78
2019-04-14T04:34:25.151Z,5.78
2019-04-14T04:37:04.517Z,4.05
2019-04-14T04:39:38.610Z,4.45
2019-04-14T04:42:09.011Z,9.83
2019-04-14T04:44:38.039Z,4.45
2019-04-14T04:47:07.727Z,3.83
2019-04-14T04:49:36.656Z,5.50
2019-04-14T04:52:06.253Z,6.12
2019-04-14T04:54:36.317Z,3.80
2019-04-14T04:57:06.665Z,4.10
2019-04-14T04:59:36.734Z,4.15
2019-04-14T05:02:05.591Z,4.35
2019-04-14T05:04:35.104Z,9.15
2019-04-14T05:07:05.594Z,3.65
2019-04-14T05:09:39.019Z,7.47
2019-04-14T05:15:03.550Z,11.00
2019-04-14T05:17:34.446Z,5.05
2019-04-14T05:20:03.358Z,4.47
2019-04-14T05:22:33.178Z,6.00
2019-04-14T05:25:02.163Z,3.10
2019-04-14T05:27:31.965Z,4.20
2019-04-14T05:30:00.815Z,4.95
2019-04-14T05:32:30.532Z,4.03
2019-04-14T05:35:00.645Z,4.53
2019-04-14T05:37:31.067Z,4.65
2019-04-14T05:40:00.071Z,6.25
2019-04-14T05:42:30.065Z,4.85
2019-04-14T05:45:00.001Z,5.42
2019-04-14T05:47:28.938Z,3.92
2019-04-14T05:49:58.917Z,7.58
2019-04-14T05:52:28.083Z,4.25
2019-04-14T05:54:57.859Z,6.40
2019-04-14T05:57:30.590Z,11.53
2019-04-14T05:59:59.451Z,5.92
2019-04-14T06:02:30.244Z,5.15
2019-04-14T06:04:59.339Z,4.35
2019-04-14T06:07:28.187Z,5.35
2019-04-14T06:09:57.151Z,5.15
2019-04-14T06:12:25.836Z,2.60
2019-04-14T06:14:56.057Z,4.65
2019-04-14T06:17:24.742Z,4.67
2019-04-14T06:19:53.434Z,4.10
2019-04-14T06:22:22.141Z,4.55
2019-04-14T06:24:50.818Z,4.72
2019-04-14T06:27:19.518Z,5.40
2019-04-14T06:29:49.770Z,4.40
2019-04-14T06:32:25.926Z,3.40
2019-04-14T06:35:12.526Z,4.65
2019-04-14T06:37:45.531Z,3.55
2019-04-14T06:40:14.204Z,3.85
2019-04-14T06:42:42.883Z,5.47
2019-04-14T06:45:11.553Z,4.62
2019-04-14T06:47:40.263Z,5.05
2019-04-14T06:50:08.964Z,5.08
2019-04-14T06:52:37.609Z,4.37
2019-04-14T06:55:06.562Z,4.78
2019-04-14T06:57:35.238Z,7.28
2019-04-14T07:00:03.915Z,5.87
2019-04-14T07:02:32.574Z,7.22
2019-04-14T07:05:01.287Z,5.60
2019-04-14T07:07:30.017Z,4.17
2019-04-14T07:09:58.707Z,5.12
2019-04-14T07:12:27.464Z,4.37
2019-04-14T07:14:56.239Z,5.17
2019-04-14T07:17:24.946Z,5.00
2019-04-14T07:20:01.812Z,4.20
2019-04-14T07:22:24.114Z,5.05
2019-04-14T07:24:52.801Z,4.55
2019-04-14T07:27:21.587Z,3.33
2019-04-14T07:29:54.777Z,5.30
2019-04-14T07:32:27.837Z,3.95
2019-04-14T07:35:04.117Z,4.65
2019-04-14T07:37:34.399Z,3.62
2019-04-14T07:40:07.393Z,3.12
2019-04-14T07:42:40.315Z,4.60
2019-04-14T07:45:13.538Z,4.92
2019-04-14T07:48:01.597Z,1.85
2019-04-14T07:50:37.779Z,4.12
2019-04-14T07:53:24.494Z,5.45
2019-04-14T07:56:03.571Z,3.00
2019-04-14T07:58:36.594Z,4.97
2019-04-14T08:01:09.570Z,2.42
2019-04-14T08:03:42.559Z,6.28
2019-04-14T08:06:11.618Z,3.05
2019-04-14T08:08:40.347Z,3.77
2019-04-14T08:11:09.018Z,3.45
2019-04-14T08:13:37.678Z,6.83
2019-04-14T08:16:06.372Z,4.25
2019-04-14T08:18:35.038Z,3.30
2019-04-14T08:21:03.732Z,2.85
2019-04-14T08:23:32.396Z,4.55
2019-04-14T08:26:01.103Z,1.85
2019-04-14T08:28:29.813Z,1.25
2019-04-14T08:30:58.507Z,2.80
2019-04-14T08:33:27.163Z,5.15
2019-04-14T08:35:55.902Z,2.83
2019-04-14T08:38:24.622Z,1.57
2019-04-14T08:40:53.319Z,5.65
2019-04-14T08:43:40.058Z,1.40
2019-04-14T08:46:10.304Z,2.33
2019-04-14T08:48:56.762Z,3.98
2019-04-14T08:51:27.021Z,1.52
2019-04-14T08:53:57.287Z,8.18
2019-04-14T08:56:33.593Z,1.25
2019-04-14T08:59:03.842Z,1.77
2019-04-14T09:01:39.978Z,3.08
2019-04-14T09:04:19.200Z,2.85
2019-04-14T09:06:55.640Z,1.30
2019-04-14T09:09:25.925Z,2.90
2019-04-14T09:14:56.306Z,1.30
2019-04-14T09:17:16.521Z,4.10
2019-04-14T09:19:45.541Z,2.52
2019-04-14T09:22:14.200Z,3.33
2019-04-14T09:24:42.888Z,1.50
2019-04-14T09:27:11.603Z,1.87
2019-04-14T09:29:40.327Z,1.85
2019-04-14T09:32:10.816Z,2.45
2019-04-14T09:34:39.483Z,2.42
2019-04-14T09:37:08.179Z,0.98
2019-04-14T09:39:36.590Z,2.22
2019-04-14T09:42:05.051Z,3.22
2019-04-14T09:44:33.499Z,2.98
2019-04-14T09:47:01.921Z,1.00
2019-04-14T09:49:30.393Z,1.90
2019-04-14T09:51:58.912Z,2.58
2019-04-14T09:54:27.584Z,8.05
2019-04-14T09:56:56.305Z,3.30
2019-04-14T09:59:24.998Z,5.65
2019-04-14T10:01:53.728Z,6.22
2019-04-14T10:04:22.380Z,4.28
2019-04-14T10:06:51.155Z,4.87
2019-04-14T10:09:19.905Z,3.37
2019-04-14T10:11:52.404Z,3.83
2019-04-14T10:14:18.909Z,2.22
2019-04-14T10:16:47.583Z,3.67
2019-04-14T10:19:16.269Z,3.20
2019-04-14T10:21:44.963Z,7.85
2019-04-14T10:24:13.664Z,7.92
2019-04-14T10:26:42.349Z,7.35
2019-04-14T10:29:11.063Z,12.28
2019-04-14T10:31:39.728Z,8.73
2019-04-14T10:34:09.904Z,12.75
2019-04-14T10:36:38.738Z,5.80
2019-04-14T10:39:07.735Z,5.35
2019-04-14T10:41:36.424Z,4.45
2019-04-14T10:44:05.219Z,5.55
2019-04-14T10:46:33.932Z,6.08
2019-04-14T10:49:02.733Z,2.72
2019-04-14T10:51:34.068Z,1.57
2019-04-14T10:56:30.331Z,3.92
2019-04-14T10:58:59.010Z,2.05
2019-04-14T11:01:27.836Z,3.58
2019-04-14T11:03:56.555Z,2.33
2019-04-14T11:06:29.310Z,5.65
2019-04-14T11:08:58.103Z,3.83
2019-04-14T11:11:26.812Z,1.55
2019-04-14T11:13:55.516Z,1.98
2019-04-14T11:16:24.193Z,4.03
2019-04-14T11:18:53.003Z,3.67
2019-04-14T11:21:21.706Z,2.40
2019-04-14T11:23:50.415Z,4.55
2019-04-14T11:26:19.064Z,5.35
2019-04-14T11:28:47.843Z,2.95
2019-04-14T11:31:18.108Z,3.30
2019-04-14T11:34:00.061Z,8.85
2019-04-14T11:37:06.075Z,6.47
2019-04-14T11:39:34.748Z,9.40
2019-04-14T11:42:03.460Z,9.08
2019-04-14T11:44:32.122Z,4.40
2019-04-14T11:47:00.807Z,3.05
2019-04-14T11:49:29.475Z,5.28
2019-04-14T11:51:58.212Z,3.27
2019-04-14T11:54:26.887Z,8.93
2019-04-14T11:56:55.595Z,5.70
2019-04-14T11:59:25.846Z,6.00
2019-04-14T12:02:04.949Z,7.00
2019-04-14T12:04:44.112Z,2.47
2019-04-14T12:07:17.339Z,6.87
2019-04-14T12:09:47.603Z,1.72
2019-04-14T12:12:16.295Z,3.27
2019-04-14T12:14:44.957Z,2.37
2019-04-14T12:17:13.642Z,3.67
2019-04-14T12:19:42.340Z,2.10
2019-04-14T12:22:11.027Z,1.47
2019-04-14T12:24:39.719Z,2.15
2019-04-14T12:27:08.433Z,2.55
2019-04-14T12:29:37.128Z,1.77
2019-04-14T12:32:06.440Z,4.12
2019-04-14T12:34:35.109Z,3.83
2019-04-14T12:37:04.471Z,5.55
2019-04-14T12:39:33.155Z,3.40
2019-04-14T12:42:12.548Z,10.38
2019-04-14T12:44:42.815Z,3.40
2019-04-14T12:47:19.126Z,3.77
2019-04-14T12:49:49.367Z,7.60
2019-04-14T12:52:22.035Z,3.98
2019-04-14T12:54:49.966Z,3.35
2019-04-14T12:57:20.257Z,8.15
2019-04-14T12:59:48.936Z,4.35
2019-04-14T13:02:19.171Z,5.08
2019-04-14T13:04:47.883Z,4.03
2019-04-14T13:07:16.564Z,6.12
2019-04-14T13:09:45.248Z,3.75
2019-04-14T13:12:13.913Z,5.90
2019-04-14T13:14:42.600Z,2.98
2019-04-14T13:17:11.288Z,3.37
2019-04-14T13:19:40.003Z,7.12
2019-04-14T13:22:08.703Z,6.60
2019-04-14T13:24:37.414Z,5.62
2019-04-14T13:27:06.091Z,7.22
2019-04-14T13:29:34.788Z,8.75
2019-04-14T13:32:03.807Z,5.17
2019-04-14T13:34:32.471Z,11.43
2019-04-14T13:37:01.160Z,6.33
2019-04-14T13:39:29.875Z,9.08
2019-04-14T13:41:58.563Z,7.10
2019-04-14T13:44:27.293Z,5.25
2019-04-14T13:46:55.953Z,6.85
2019-04-14T13:49:24.681Z,11.18
2019-04-14T13:51:53.394Z,11.75
2019-04-14T13:54:22.114Z,20.15
2019-04-14T13:56:50.908Z,18.85
2019-04-14T13:59:19.577Z,12.33
2019-04-14T14:01:48.251Z,12.13
2019-04-14T14:04:17.031Z,17.82
2019-04-14T14:06:45.667Z,12.23
2019-04-14T14:09:14.392Z,10.82
2019-04-14T14:11:44.696Z,13.62
2019-04-14T14:14:14.959Z,8.98
2019-04-14T14:16:45.213Z,16.95
2019-04-14T14:19:30.193Z,12.10
2019-04-14T14:22:06.217Z,16.02
2019-04-14T14:24:45.518Z,14.28
2019-04-14T14:27:14.207Z,13.78
2019-04-14T14:29:42.901Z,15.18
2019-04-14T14:32:13.174Z,13.50
2019-04-14T14:34:41.892Z,16.65
2019-04-14T14:37:10.606Z,18.80
2019-04-14T14:39:39.308Z,18.82
2019-04-14T14:42:07.999Z,12.37
2019-04-14T14:44:50.350Z,15.48
2019-04-14T14:47:20.595Z,20.43
2019-04-14T14:50:06.140Z,21.37
2019-04-14T14:52:36.475Z,20.30
2019-04-14T14:55:06.961Z,21.60
2019-04-14T14:57:35.659Z,26.50
2019-04-14T15:00:09.931Z,29.50
2019-04-14T15:02:38.611Z,22.65
2019-04-14T15:05:07.290Z,17.73
2019-04-14T15:07:35.985Z,17.02
2019-04-14T15:10:06.649Z,13.78
2019-04-14T15:12:35.377Z,9.68
2019-04-14T15:15:06.477Z,11.53
2019-04-14T15:17:35.212Z,9.63
2019-04-14T15:20:04.464Z,13.05
2019-04-14T15:22:33.144Z,9.85
2019-04-14T15:25:01.848Z,7.45
2019-04-14T15:27:30.527Z,10.32
2019-04-14T15:29:59.219Z,9.98
2019-04-14T15:32:27.905Z,9.48
2019-04-14T15:34:56.618Z,9.70
2019-04-14T15:37:25.336Z,9.45
2019-04-14T15:39:54.010Z,8.85
2019-04-14T15:42:22.695Z,12.65
2019-04-14T15:44:51.378Z,11.30
2019-04-14T15:47:20.045Z,11.60
2019-04-14T15:49:48.756Z,14.13
2019-04-14T15:52:17.444Z,10.90
2019-04-14T15:54:46.166Z,11.05
2019-04-14T15:57:16.410Z,8.30
2019-04-14T15:59:46.661Z,10.38
2019-04-14T16:02:19.673Z,12.50
2019-04-14T16:05:02.037Z,8.85
2019-04-14T16:07:35.019Z,7.92
2019-04-14T16:10:06.874Z,6.78
2019-04-14T16:12:39.883Z,7.25
2019-04-14T16:15:10.231Z,10.53
2019-04-14T16:17:40.463Z,6.85
2019-04-14T16:20:13.751Z,53.78
2019-04-14T16:22:42.428Z,8.83
2019-04-14T16:25:11.120Z,7.50
2019-04-14T16:27:41.384Z,11.00
2019-04-14T16:30:17.349Z,11.50
2019-04-14T16:32:50.576Z,13.00
2019-04-14T16:35:20.796Z,15.20
2019-04-14T16:37:49.491Z,17.62
2019-04-14T16:40:18.188Z,24.98
2019-04-14T16:42:46.895Z,18.90
2019-04-14T16:45:17.171Z,18.55
2019-04-14T16:47:45.827Z,19.92
2019-04-14T16:50:14.541Z,22.10
2019-04-14T16:52:44.776Z,22.52
2019-04-14T16:55:22.587Z,18.80
2019-04-14T16:57:59.114Z,20.12
2019-04-14T17:00:29.406Z,37.00
2019-04-14T17:02:58.105Z,53.45
2019-04-14T17:05:26.783Z,58.23
2019-04-14T17:07:55.551Z,61.58
2019-04-14T17:10:24.273Z,53.20
2019-04-14T17:12:52.951Z,58.38
2019-04-14T17:15:32.224Z,69.00
2019-04-14T17:18:07.983Z,60.78
2019-04-14T17:20:38.281Z,46.60
2019-04-14T17:23:24.563Z,56.53
2019-04-14T17:26:11.011Z,45.80
2019-04-14T17:31:22.855Z,32.30
2019-04-14T17:34:03.713Z,32.45
2019-04-14T17:36:33.942Z,23.22
2019-04-14T17:39:16.084Z,23.98
2019-04-14T17:41:55.383Z,22.25
2019-04-14T17:44:28.074Z,37.00
2019-04-14T17:47:04.042Z,31.57
2019-04-14T17:49:42.809Z,35.68
2019-04-14T17:52:28.280Z,38.20
2019-04-14T17:55:16.716Z,35.17
2019-04-14T18:00:45.121Z,31.82
2019-04-14T18:03:33.651Z,30.62
2019-04-14T18:09:28.748Z,26.50
2019-04-14T18:12:04.461Z,23.12
2019-04-14T18:14:40.761Z,24.37
2019-04-14T18:17:26.035Z,22.85
2019-04-14T18:19:56.263Z,25.50
2019-04-14T18:22:24.997Z,20.48
2019-04-14T18:24:53.747Z,28.30
2019-04-14T18:27:22.464Z,22.85
2019-04-14T18:30:01.538Z,22.52
2019-04-14T18:32:31.804Z,20.97
2019-04-14T18:35:02.072Z,17.92
2019-04-14T18:37:32.359Z,17.12
2019-04-14T18:40:11.443Z,20.97
2019-04-14T18:42:58.093Z,19.05
2019-04-14T18:45:44.535Z,16.45
2019-04-14T18:51:21.160Z,21.23
2019-04-14T18:53:57.393Z,20.70
2019-04-14T18:56:30.592Z,25.25
2019-04-14T18:59:03.614Z,26.05
2019-04-14T19:01:33.848Z,29.05
2019-04-14T19:04:02.583Z,27.17
2019-04-14T19:06:31.427Z,28.80
2019-04-14T19:09:00.183Z,24.37
2019-04-14T19:11:45.512Z,27.55
2019-04-14T19:14:15.853Z,29.67
2019-04-14T19:16:46.107Z,23.02
2019-04-14T19:19:16.103Z,17.45
2019-04-14T19:21:44.530Z,25.77
2019-04-14T19:24:12.946Z,22.10
2019-04-14T19:26:41.426Z,24.70
2019-04-14T19:29:09.839Z,22.02
2019-04-14T19:31:39.250Z,25.80
2019-04-14T19:34:07.718Z,27.17
2019-04-14T19:36:36.371Z,24.25
2019-04-14T19:39:07.197Z,23.35
2019-04-14T19:44:03.394Z,27.55
2019-04-14T19:46:31.864Z,24.23
2019-04-14T19:49:00.265Z,32.88
2019-04-14T19:51:28.757Z,26.65
2019-04-14T19:53:57.182Z,25.90
2019-04-14T19:56:25.624Z,30.25
2019-04-14T19:58:54.103Z,32.88
2019-04-14T20:01:22.499Z,33.00
2019-04-14T20:03:50.935Z,30.82
2019-04-14T20:06:19.376Z,34.67
2019-04-14T20:08:47.799Z,37.40
2019-04-14T20:11:16.217Z,34.18
2019-04-14T20:13:46.471Z,28.55
2019-04-14T20:16:18.880Z,26.93
2019-04-14T20:18:51.347Z,30.90
2019-04-14T20:21:37.590Z,28.15
2019-04-14T20:24:19.963Z,26.62
2019-04-14T20:29:59.665Z,30.65
2019-04-14T20:32:32.114Z,44.98
2019-04-14T20:35:00.566Z,31.97
2019-04-14T20:37:28.982Z,27.22
2019-04-14T20:39:57.414Z,24.50
2019-04-14T20:42:25.849Z,32.48
2019-04-14T20:44:54.415Z,24.63
2019-04-14T20:47:22.858Z,23.47
2019-04-14T20:49:51.328Z,25.72
2019-04-14T20:52:19.731Z,20.35
2019-04-14T20:54:48.170Z,26.70
2019-04-14T20:57:16.608Z,20.88
2019-04-14T20:59:45.018Z,19.77
2019-04-14T21:02:30.327Z,17.25
2019-04-14T21:05:00.299Z,19.60
2019-04-14T21:07:38.947Z,15.25
2019-04-14T21:10:26.895Z,13.60
2019-04-14T21:13:02.662Z,12.88
2019-04-14T21:15:41.325Z,16.07
2019-04-14T21:18:14.301Z,16.75
2019-04-14T21:20:44.294Z,14.07
2019-04-14T21:23:20.510Z,13.28
2019-04-14T21:26:00.525Z,12.88
2019-04-14T21:28:31.576Z,8.95
2019-04-14T21:31:10.866Z,12.25
2019-04-14T21:33:55.565Z,16.00
2019-04-14T21:36:25.548Z,10.20
2019-04-14T21:38:58.625Z,13.20
2019-04-14T21:41:28.634Z,11.75
2019-04-14T21:43:57.134Z,14.15
2019-04-14T21:46:25.544Z,12.55
2019-04-14T21:48:54.007Z,12.73
2019-04-14T21:51:24.025Z,12.75
2019-04-14T21:53:52.455Z,10.93
2019-04-14T21:56:21.574Z,14.80
2019-04-14T21:58:51.592Z,17.02
2019-04-14T22:01:23.476Z,11.38
2019-04-14T22:04:11.654Z,16.12
2019-04-14T22:06:41.677Z,13.95
2019-04-14T22:09:11.674Z,12.47
2019-04-14T22:11:40.087Z,11.03
2019-04-14T22:14:08.498Z,8.68
2019-04-14T22:16:37.034Z,12.15
2019-04-14T22:19:05.488Z,11.75
2019-04-14T22:21:33.903Z,6.75
2019-04-14T22:24:02.451Z,8.68
2019-04-14T22:26:30.888Z,16.62
2019-04-14T22:29:02.083Z,8.45
2019-04-14T22:31:29.387Z,9.08
2019-04-14T22:33:57.807Z,10.10
2019-04-14T22:36:26.246Z,11.05
2019-04-14T22:38:54.696Z,9.65
2019-04-14T22:41:23.119Z,10.55
2019-04-14T22:43:51.559Z,11.85
2019-04-14T22:46:19.971Z,11.68
2019-04-14T22:48:48.403Z,7.70
2019-04-14T22:51:16.807Z,8.90
2019-04-14T22:53:45.279Z,10.82
2019-04-14T22:56:13.678Z,6.62
2019-04-14T22:58:42.129Z,8.60
2019-04-14T23:01:12.154Z,10.18
2019-04-14T23:03:44.851Z,11.88
2019-04-14T23:06:26.831Z,7.75
2019-04-14T23:09:08.561Z,9.70
2019-04-14T23:11:47.039Z,6.30
2019-04-14T23:14:25.862Z,10.03
2019-04-14T23:16:55.832Z,8.60
2019-04-14T23:19:34.782Z,7.58
2019-04-14T23:22:07.457Z,8.28
2019-04-14T23:24:37.453Z,8.68
2019-04-14T23:27:05.859Z,5.67
2019-04-14T23:29:34.327Z,8.73
2019-04-14T23:32:03.194Z,7.15
2019-04-14T23:34:31.605Z,5.37
2019-04-14T23:37:00.035Z,4.95
2019-04-14T23:39:28.440Z,5.70
2019-04-14T23:41:56.866Z,4.50
2019-04-14T23:44:25.271Z,4.30
2019-04-14T23:46:53.728Z,5.62
2019-04-14T23:49:22.128Z,4.97
2019-04-14T23:51:50.556Z,6.33
2019-04-14T23:54:18.998Z,6.17
2019-04-14T23:56:47.414Z,3.65
2019-04-14T23:59:15.826Z,4.28
